Terminal Aerodrome Forecast
Issued by NWS Green Bay, WI

Home | Current Version | Previous Version | Text Only | Print | Product List | Glossary On
Versions: 1 2 3 4 5 6 7 8 9 10 11 12 13 14 15 16 17 18 19 20 21 22 23
000
FTUS43 KGRB 010301 AAC
TAFGRB
TAF AMD
KGRB 010301Z 0103/0124 04010KT P6SM -SHRA SCT017 OVC025
      TEMPO 0109/0113 3SM SHRA BR OVC012
     FM011400 04009KT P6SM -SHRA OVC012
     FM011900 05010KT 5SM -SHRA BR SCT008 OVC014=

USA.gov is the U.S. government's official web portal to all federal, state and local government web resources and services.